createdAt,value
2023-05-26T00:02:29.068Z,26.80
2023-05-26T00:05:31.833Z,26.75
2023-05-26T00:08:34.173Z,25.95
2023-05-26T00:11:39.903Z,32.72
2023-05-26T00:14:42.366Z,27.45
2023-05-26T00:17:48.556Z,27.70
2023-05-26T00:20:51.366Z,29.90
2023-05-26T00:23:54.456Z,28.90
2023-05-26T00:26:59.201Z,26.42
2023-05-26T00:30:02.760Z,28.00
2023-05-26T00:33:05.757Z,29.27
2023-05-26T00:36:08.834Z,28.70
2023-05-26T00:39:11.446Z,35.33
2023-05-26T00:42:14.249Z,32.33
2023-05-26T00:45:16.709Z,27.05
2023-05-26T00:48:19.420Z,29.53
2023-05-26T00:51:22.028Z,30.52
2023-05-26T00:54:24.978Z,28.52
2023-05-26T00:57:30.620Z,30.33
2023-05-26T01:00:35.120Z,32.08
2023-05-26T01:03:40.847Z,32.23
2023-05-26T01:06:46.105Z,29.70
2023-05-26T01:09:52.362Z,34.90
2023-05-26T01:12:59.510Z,34.53
2023-05-26T01:16:08.308Z,30.37
2023-05-26T01:19:30.090Z,30.80
2023-05-26T01:22:49.915Z,30.67
2023-05-26T01:26:15.616Z,29.05
2023-05-26T01:29:21.642Z,29.58
2023-05-26T01:32:25.944Z,30.52
2023-05-26T01:35:28.590Z,31.90
2023-05-26T01:38:31.785Z,29.80
2023-05-26T01:41:43.404Z,30.83
2023-05-26T01:44:51.605Z,29.08
2023-05-26T01:47:58.876Z,31.60
2023-05-26T01:51:02.889Z,30.30
2023-05-26T01:54:09.791Z,30.27
2023-05-26T01:57:15.229Z,31.58
2023-05-26T02:00:27.638Z,29.95
2023-05-26T02:03:30.487Z,30.42
2023-05-26T02:06:33.093Z,32.17
2023-05-26T02:09:37.883Z,27.75
2023-05-26T02:12:40.746Z,33.38
2023-05-26T02:15:47.587Z,33.22
2023-05-26T02:18:52.916Z,30.70
2023-05-26T02:21:55.784Z,30.50
2023-05-26T02:24:58.559Z,29.55
2023-05-26T02:28:01.073Z,27.67
2023-05-26T02:31:03.999Z,28.85
2023-05-26T02:34:10.972Z,36.17
2023-05-26T02:37:14.249Z,32.23
2023-05-26T02:40:16.844Z,30.62
2023-05-26T02:43:21.506Z,31.50
2023-05-26T02:46:24.196Z,30.73
2023-05-26T02:49:26.959Z,28.05
2023-05-26T02:52:29.571Z,34.00
2023-05-26T02:55:32.419Z,31.62
2023-05-26T02:58:35.007Z,29.98
2023-05-26T03:01:38.711Z,29.00
2023-05-26T03:04:44.121Z,30.25
2023-05-26T03:07:46.914Z,31.00
2023-05-26T03:11:10.529Z,33.22
2023-05-26T03:14:20.187Z,29.50
2023-05-26T03:17:22.885Z,37.65
2023-05-26T03:20:26.038Z,30.50
2023-05-26T03:23:29.711Z,29.87
2023-05-26T03:26:32.758Z,29.90
2023-05-26T03:29:35.886Z,28.90
2023-05-26T03:32:39.460Z,30.70
2023-05-26T03:35:41.939Z,34.20
2023-05-26T03:38:45.206Z,34.37
2023-05-26T03:41:48.047Z,33.10
2023-05-26T03:44:52.440Z,32.80
2023-05-26T03:47:56.548Z,33.03
2023-05-26T03:50:59.287Z,34.05
2023-05-26T03:54:02.253Z,32.87
2023-05-26T03:57:08.976Z,30.73
2023-05-26T04:00:12.562Z,32.28
2023-05-26T04:03:21.299Z,31.52
2023-05-26T04:06:24.731Z,31.62
2023-05-26T04:09:27.823Z,27.20
2023-05-26T04:12:30.647Z,27.70
2023-05-26T04:15:33.084Z,30.10
2023-05-26T04:18:41.161Z,30.77
2023-05-26T04:21:43.641Z,28.40
2023-05-26T04:24:46.636Z,27.80
2023-05-26T04:27:49.746Z,29.55
2023-05-26T04:30:54.999Z,28.75
2023-05-26T04:34:00.092Z,28.60
2023-05-26T04:37:05.748Z,25.42
2023-05-26T04:40:10.837Z,30.10
2023-05-26T04:43:14.434Z,27.15
2023-05-26T04:46:17.775Z,24.42
2023-05-26T04:49:23.946Z,27.55
2023-05-26T04:52:28.014Z,28.17
2023-05-26T04:55:31.601Z,29.30
2023-05-26T04:58:34.318Z,30.35
2023-05-26T05:01:37.609Z,25.55
2023-05-26T05:04:46.698Z,24.27
2023-05-26T05:07:52.126Z,26.67
2023-05-26T05:10:55.223Z,28.27
2023-05-26T05:14:00.163Z,26.60
2023-05-26T05:17:05.851Z,24.30
2023-05-26T05:20:15.801Z,25.17
2023-05-26T05:23:21.566Z,25.75
2023-05-26T05:26:27.747Z,26.87
2023-05-26T05:29:30.676Z,26.50
2023-05-26T05:32:33.718Z,28.33
2023-05-26T05:35:36.378Z,24.45
2023-05-26T05:38:39.777Z,26.35
2023-05-26T05:41:42.205Z,26.90
2023-05-26T05:44:44.997Z,25.20
2023-05-26T05:47:47.610Z,26.12
2023-05-26T05:50:50.530Z,21.65
2023-05-26T05:53:55.523Z,21.42
2023-05-26T05:57:01.392Z,21.80
2023-05-26T06:00:09.018Z,21.98
2023-05-26T06:03:15.940Z,19.15
2023-05-26T06:06:18.963Z,25.05
2023-05-26T06:09:22.906Z,17.08
2023-05-26T06:12:26.519Z,19.87
2023-05-26T06:15:29.048Z,17.92
2023-05-26T06:18:33.127Z,16.65
2023-05-26T06:21:35.939Z,16.15
2023-05-26T06:24:38.959Z,16.85
2023-05-26T06:27:41.830Z,19.07
2023-05-26T06:30:44.979Z,17.17
2023-05-26T06:33:48.655Z,18.23
2023-05-26T06:36:52.291Z,17.08
2023-05-26T06:39:56.007Z,16.67
2023-05-26T06:43:01.098Z,16.63
2023-05-26T06:46:04.680Z,20.02
2023-05-26T06:49:07.656Z,15.38
2023-05-26T06:52:13.259Z,13.52
2023-05-26T06:55:17.827Z,14.73
2023-05-26T06:58:23.426Z,15.00
2023-05-26T07:01:26.275Z,14.63
2023-05-26T07:04:29.060Z,15.85
2023-05-26T07:07:50.101Z,14.45
2023-05-26T07:10:53.569Z,14.30
2023-05-26T07:13:56.471Z,12.77
2023-05-26T07:16:59.390Z,13.50
2023-05-26T07:20:02.410Z,14.15
2023-05-26T07:23:09.082Z,17.05
2023-05-26T07:26:11.704Z,13.32
2023-05-26T07:29:14.568Z,16.83
2023-05-26T07:32:18.647Z,12.75
2023-05-26T07:35:21.877Z,16.23
2023-05-26T07:38:25.810Z,15.88
2023-05-26T07:41:28.663Z,17.52
2023-05-26T07:44:31.063Z,11.67
2023-05-26T07:47:34.884Z,14.18
2023-05-26T07:50:37.693Z,15.40
2023-05-26T07:53:43.749Z,13.45
2023-05-26T07:56:46.403Z,13.32
2023-05-26T07:59:49.264Z,14.33
2023-05-26T08:02:52.126Z,11.77
2023-05-26T08:05:55.379Z,12.68
2023-05-26T08:08:58.295Z,12.68
2023-05-26T08:12:01.267Z,15.25
2023-05-26T08:15:05.426Z,12.50
2023-05-26T08:18:08.538Z,12.88
2023-05-26T08:21:11.353Z,10.98
2023-05-26T08:24:15.206Z,10.40
2023-05-26T08:27:17.862Z,12.23
2023-05-26T08:30:23.267Z,16.10
2023-05-26T08:33:25.822Z,15.93
2023-05-26T08:36:28.706Z,11.88
2023-05-26T08:39:31.294Z,11.93
2023-05-26T08:42:38.029Z,17.02
2023-05-26T08:45:42.693Z,14.67
2023-05-26T08:48:46.053Z,11.05
2023-05-26T08:52:07.712Z,14.18
2023-05-26T08:55:10.800Z,12.35
2023-05-26T08:58:14.327Z,11.00
2023-05-26T09:01:17.200Z,11.77
2023-05-26T09:04:20.084Z,14.57
2023-05-26T09:07:26.691Z,9.63
2023-05-26T09:10:35.960Z,10.38
2023-05-26T09:13:41.758Z,12.65
2023-05-26T09:16:47.731Z,12.93
2023-05-26T09:19:50.703Z,11.00
2023-05-26T09:22:57.628Z,11.75
2023-05-26T09:26:00.510Z,13.18
2023-05-26T09:29:06.060Z,13.43
2023-05-26T09:32:10.106Z,11.50
2023-05-26T09:35:14.940Z,11.95
2023-05-26T09:38:19.893Z,9.73
2023-05-26T09:41:22.452Z,10.45
2023-05-26T09:44:25.644Z,9.52
2023-05-26T09:47:36.512Z,10.83
2023-05-26T09:50:40.887Z,12.80
2023-05-26T09:53:43.296Z,9.65
2023-05-26T09:56:57.251Z,15.30
2023-05-26T10:00:03.083Z,9.82
2023-05-26T10:03:11.360Z,9.73
2023-05-26T10:06:17.486Z,7.22
2023-05-26T10:09:23.931Z,8.23
2023-05-26T10:12:37.020Z,9.63
2023-05-26T10:15:39.896Z,7.70
2023-05-26T10:18:43.142Z,8.87
2023-05-26T10:22:01.755Z,12.35
2023-05-26T10:25:11.421Z,7.45
2023-05-26T10:28:29.792Z,7.82
2023-05-26T10:31:35.580Z,10.90
2023-05-26T10:34:46.353Z,8.57
2023-05-26T10:37:56.876Z,10.18
2023-05-26T10:40:59.437Z,8.63
2023-05-26T10:44:03.739Z,8.65
2023-05-26T10:47:09.868Z,7.65
2023-05-26T10:50:12.593Z,9.47
2023-05-26T10:53:25.360Z,11.10
2023-05-26T10:56:46.034Z,13.18
2023-05-26T10:59:49.129Z,7.57
2023-05-26T11:02:51.993Z,9.90
2023-05-26T11:05:57.708Z,9.43
2023-05-26T11:09:08.764Z,7.25
2023-05-26T11:12:11.418Z,8.98
2023-05-26T11:15:26.732Z,10.60
2023-05-26T11:18:29.413Z,11.27
2023-05-26T11:21:35.128Z,12.43
2023-05-26T11:24:38.295Z,7.15
2023-05-26T11:27:49.384Z,6.70
2023-05-26T11:30:52.133Z,7.45
2023-05-26T11:33:56.871Z,10.27
2023-05-26T11:37:02.386Z,8.37
2023-05-26T11:40:14.867Z,7.70
2023-05-26T11:43:17.396Z,7.28
2023-05-26T11:46:21.351Z,7.65
2023-05-26T11:49:23.748Z,9.68
2023-05-26T11:52:26.496Z,10.87
2023-05-26T11:55:28.924Z,9.35
2023-05-26T11:58:39.046Z,12.07
2023-05-26T12:01:41.648Z,6.45
2023-05-26T12:04:44.812Z,9.93
2023-05-26T12:08:02.123Z,8.10
2023-05-26T12:11:13.574Z,6.00
2023-05-26T12:14:16.762Z,11.60
2023-05-26T12:17:19.698Z,6.47
2023-05-26T12:20:37.884Z,9.02
2023-05-26T12:23:47.358Z,8.67
2023-05-26T12:26:49.802Z,6.85
2023-05-26T12:29:55.636Z,7.78
2023-05-26T12:32:58.628Z,16.60
2023-05-26T12:36:01.667Z,11.85
2023-05-26T12:39:05.680Z,8.50
2023-05-26T12:42:08.414Z,8.40
2023-05-26T12:45:11.366Z,6.15
2023-05-26T12:48:17.107Z,9.23
2023-05-26T12:51:20.167Z,7.55
2023-05-26T12:54:23.095Z,8.20
2023-05-26T12:57:25.657Z,8.07
2023-05-26T13:00:29.724Z,8.73
2023-05-26T13:03:32.500Z,6.55
2023-05-26T13:06:37.252Z,7.68
2023-05-26T13:09:42.498Z,8.07
2023-05-26T13:12:46.069Z,6.20
2023-05-26T13:15:48.638Z,7.37
2023-05-26T13:18:51.372Z,8.07
2023-05-26T13:21:53.977Z,8.68
2023-05-26T13:24:56.780Z,6.87
2023-05-26T13:27:59.373Z,7.85
2023-05-26T13:31:02.227Z,9.10
2023-05-26T13:34:04.778Z,9.13
2023-05-26T13:37:07.581Z,6.62
2023-05-26T13:40:11.577Z,10.97
2023-05-26T13:43:14.333Z,11.45
2023-05-26T13:46:18.020Z,6.70
2023-05-26T13:49:22.658Z,6.80
2023-05-26T13:52:25.129Z,12.20
2023-05-26T13:55:27.979Z,8.47
2023-05-26T13:58:30.419Z,10.75
2023-05-26T14:01:37.633Z,7.90
2023-05-26T14:04:41.846Z,7.80
2023-05-26T14:07:44.618Z,6.65
2023-05-26T14:10:48.685Z,11.30
2023-05-26T14:13:52.192Z,6.57
2023-05-26T14:16:55.215Z,8.48
2023-05-26T14:20:07.701Z,9.25
2023-05-26T14:23:13.074Z,7.10
2023-05-26T14:26:19.233Z,6.13
2023-05-26T14:29:23.240Z,7.10
2023-05-26T14:32:29.254Z,6.55
2023-05-26T14:35:32.465Z,11.93
2023-05-26T14:38:35.006Z,9.07
2023-05-26T14:41:37.801Z,8.13
2023-05-26T14:44:40.200Z,6.20
2023-05-26T14:47:42.923Z,5.32
2023-05-26T14:50:45.314Z,8.30
2023-05-26T14:53:48.023Z,10.20
2023-05-26T14:56:52.288Z,9.57
2023-05-26T14:59:58.261Z,8.10
2023-05-26T15:03:00.898Z,9.25
2023-05-26T15:06:07.342Z,8.32
2023-05-26T15:09:14.307Z,5.85
2023-05-26T15:12:20.299Z,7.20
2023-05-26T15:15:23.467Z,9.48
2023-05-26T15:18:26.948Z,8.35
2023-05-26T15:21:37.860Z,5.25
2023-05-26T15:24:41.870Z,6.37
2023-05-26T15:27:44.349Z,10.00
2023-05-26T15:30:47.653Z,8.95
2023-05-26T15:33:50.106Z,9.65
2023-05-26T15:36:53.232Z,8.60
2023-05-26T15:39:55.750Z,7.82
2023-05-26T15:42:58.404Z,6.90
2023-05-26T15:46:02.832Z,6.40
2023-05-26T15:49:06.711Z,6.40
2023-05-26T15:52:10.646Z,10.70
2023-05-26T15:55:13.743Z,6.43
2023-05-26T15:58:16.382Z,8.87
2023-05-26T16:01:20.171Z,10.63
2023-05-26T16:04:23.194Z,6.95
2023-05-26T16:07:25.607Z,8.50
2023-05-26T16:10:28.349Z,7.43
2023-05-26T16:13:31.235Z,6.87
2023-05-26T16:16:33.940Z,7.47
2023-05-26T16:19:36.646Z,5.78
2023-05-26T16:22:43.173Z,14.75
2023-05-26T16:25:46.425Z,7.57
2023-05-26T16:28:49.359Z,6.97
2023-05-26T16:31:52.050Z,6.62
2023-05-26T16:34:55.661Z,8.20
2023-05-26T16:38:01.097Z,10.52
2023-05-26T16:41:07.085Z,9.75
2023-05-26T16:44:11.811Z,9.37
2023-05-26T16:47:17.299Z,9.18
2023-05-26T16:50:19.752Z,6.28
2023-05-26T16:53:26.454Z,11.50
2023-05-26T16:56:28.843Z,14.07
2023-05-26T16:59:31.470Z,7.13
2023-05-26T17:02:34.269Z,9.85
2023-05-26T17:05:37.084Z,6.55
2023-05-26T17:08:39.742Z,10.98
2023-05-26T17:11:42.527Z,8.98
2023-05-26T17:14:44.930Z,10.17
2023-05-26T17:17:49.383Z,7.82
2023-05-26T17:20:52.347Z,9.57
2023-05-26T17:23:55.241Z,8.38
2023-05-26T17:26:57.647Z,8.18
2023-05-26T17:30:01.634Z,11.10
2023-05-26T17:33:04.237Z,10.07
2023-05-26T17:36:07.436Z,8.93
2023-05-26T17:39:10.599Z,9.90
2023-05-26T17:42:13.597Z,11.95
2023-05-26T17:45:16.058Z,9.63
2023-05-26T17:48:21.228Z,13.60
2023-05-26T17:51:23.668Z,10.75
2023-05-26T17:54:29.576Z,10.95
2023-05-26T17:57:33.282Z,10.50
2023-05-26T18:00:36.318Z,10.37
2023-05-26T18:03:39.088Z,12.77
2023-05-26T18:06:42.697Z,12.07
2023-05-26T18:09:45.404Z,11.82
2023-05-26T18:12:47.822Z,14.00
2023-05-26T18:15:50.761Z,17.07
2023-05-26T18:18:53.111Z,12.32
2023-05-26T18:21:56.763Z,12.25
2023-05-26T18:24:59.489Z,10.68
2023-05-26T18:28:02.430Z,13.52
2023-05-26T18:31:05.156Z,9.50
2023-05-26T18:34:23.905Z,13.30
2023-05-26T18:37:27.578Z,15.40
2023-05-26T18:40:30.448Z,9.60
2023-05-26T18:43:32.990Z,11.63
2023-05-26T18:46:35.904Z,10.97
2023-05-26T18:49:38.494Z,12.05
2023-05-26T18:52:41.339Z,10.57
2023-05-26T18:55:43.729Z,14.52
2023-05-26T18:58:49.173Z,11.12
2023-05-26T19:01:57.165Z,10.50
2023-05-26T19:04:59.879Z,11.12
2023-05-26T19:08:02.409Z,13.88
2023-05-26T19:11:05.173Z,17.67
2023-05-26T19:14:07.652Z,12.13
2023-05-26T19:17:10.447Z,11.90
2023-05-26T19:20:13.322Z,13.13
2023-05-26T19:23:16.219Z,10.48
2023-05-26T19:26:18.815Z,12.48
2023-05-26T19:29:21.704Z,13.45
2023-05-26T19:32:24.121Z,11.00
2023-05-26T19:35:26.890Z,15.50
2023-05-26T19:38:29.365Z,15.80
2023-05-26T19:41:32.096Z,17.62
2023-05-26T19:44:36.160Z,13.60
2023-05-26T19:47:44.507Z,16.50
2023-05-26T19:50:46.932Z,17.62
2023-05-26T19:53:50.173Z,34.40
2023-05-26T19:56:52.800Z,16.58
2023-05-26T19:59:55.872Z,15.98
2023-05-26T20:02:59.177Z,16.40
2023-05-26T20:06:02.177Z,11.12
2023-05-26T20:09:05.846Z,14.77
2023-05-26T20:12:09.348Z,16.45
2023-05-26T20:15:11.782Z,13.30
2023-05-26T20:18:14.518Z,12.97
2023-05-26T20:21:16.972Z,12.35
2023-05-26T20:24:20.393Z,12.75
2023-05-26T20:27:22.756Z,11.90
2023-05-26T20:30:25.676Z,12.88
2023-05-26T20:33:28.157Z,12.20
2023-05-26T20:36:37.828Z,12.82
2023-05-26T20:39:42.164Z,13.95
2023-05-26T20:42:46.098Z,12.10
2023-05-26T20:45:51.821Z,16.60
2023-05-26T20:48:54.526Z,17.33
2023-05-26T20:51:57.082Z,18.52
2023-05-26T20:54:59.822Z,15.88
2023-05-26T20:58:02.653Z,13.07
2023-05-26T21:01:05.400Z,13.00
2023-05-26T21:04:08.419Z,14.50
2023-05-26T21:07:11.431Z,11.73
2023-05-26T21:10:13.826Z,10.35
2023-05-26T21:13:16.568Z,14.70
2023-05-26T21:16:19.034Z,15.85
2023-05-26T21:19:22.179Z,13.17
2023-05-26T21:22:24.844Z,10.55
2023-05-26T21:25:27.902Z,15.27
2023-05-26T21:28:30.427Z,12.43
2023-05-26T21:31:33.240Z,10.82
2023-05-26T21:34:35.683Z,14.37
2023-05-26T21:37:38.430Z,12.25
2023-05-26T21:40:40.831Z,10.85
2023-05-26T21:43:43.704Z,11.23
2023-05-26T21:46:46.240Z,13.02
2023-05-26T21:49:49.169Z,10.60
2023-05-26T21:52:51.604Z,12.98
2023-05-26T21:55:54.367Z,11.27
2023-05-26T21:58:59.602Z,11.75
2023-05-26T22:02:02.301Z,10.80
2023-05-26T22:05:07.066Z,13.40
2023-05-26T22:08:09.441Z,12.35
2023-05-26T22:11:12.161Z,12.43
2023-05-26T22:14:25.335Z,14.07
2023-05-26T22:17:28.689Z,16.67
2023-05-26T22:20:33.619Z,12.73
2023-05-26T22:23:36.607Z,9.38
2023-05-26T22:26:39.023Z,10.60
2023-05-26T22:29:41.758Z,12.35
2023-05-26T22:32:44.295Z,11.70
2023-05-26T22:35:47.033Z,11.87
2023-05-26T22:38:49.427Z,10.20
2023-05-26T22:41:52.207Z,12.80
2023-05-26T22:44:54.680Z,9.05
2023-05-26T22:47:57.581Z,11.35
2023-05-26T22:51:00.039Z,10.03
2023-05-26T22:54:02.973Z,8.20
2023-05-26T22:57:05.528Z,10.77
2023-05-26T23:00:09.039Z,9.82
2023-05-26T23:03:11.513Z,9.60
2023-05-26T23:06:14.392Z,9.17
2023-05-26T23:09:17.341Z,9.73
2023-05-26T23:12:20.421Z,10.98
2023-05-26T23:15:23.022Z,9.25
2023-05-26T23:18:25.875Z,11.48
2023-05-26T23:21:28.387Z,15.00
2023-05-26T23:24:31.329Z,13.18
2023-05-26T23:27:33.746Z,8.98
2023-05-26T23:30:36.894Z,8.73
2023-05-26T23:33:40.822Z,10.60
2023-05-26T23:36:44.882Z,8.00
2023-05-26T23:39:47.209Z,13.50
2023-05-26T23:42:50.006Z,7.30
2023-05-26T23:45:56.416Z,8.75
2023-05-26T23:48:59.669Z,9.95
2023-05-26T23:52:02.091Z,10.13
2023-05-26T23:55:05.612Z,11.35
2023-05-26T23:58:08.059Z,9.43
